Terminal Aerodrome Forecast
Issued by NWS

Home | Current Version | Previous Version | Text Only | Print | Product List | Glossary Off
Versions: 1 2 3 4 5 6 7 8 9 10 11 12 13 14 15

000
FTUS45 KGGW 220400 AAA
TAFSDY
TAF AMD
KSDY 220414Z 2204/2224 VRB06KT P6SM FEW040
     FM220600 22008KT P6SM SCT180
     FM222100 25012KT P6SM SCT100
      AMD LTD TO CLD VIS AND WIND=

USA.gov is the U.S. government's official web portal to all federal, state and local government web resources and services.